Time,TemperatureF,DewpointF,PressureIn,WindDirection,WindDirectionDegrees,WindSpeedMPH,WindSpeedGustMPH,Humidity,HourlyPrecipIn,Conditions,Clouds,dailyrainin,SoftwareType,DateUTC
2013-03-05 00:00:00,28.5,28.0,29.93,WNW,296,0.0,0.0,97,0.00,,,0.00,weatherlink.com 1.10,2013-03-05 08:00:00,
2013-03-05 00:15:00,28.4,28.0,29.92,NNW,345,0.0,0.0,97,0.00,,,0.00,weatherlink.com 1.10,2013-03-05 08:15:00,
2013-03-05 00:30:00,28.4,28.0,29.92,NNW,345,0.0,0.0,97,0.00,,,0.00,weatherlink.com 1.10,2013-03-05 08:30:00,
2013-03-05 00:45:00,28.1,27.0,29.92,NNW,345,0.0,0.0,97,0.00,,,0.00,weatherlink.com 1.10,2013-03-05 08:45:00,
2013-03-05 01:00:00,28.1,27.0,29.93,North,2,0.0,0.0,97,0.00,,,0.00,weatherlink.com 1.10,2013-03-05 09:00:00,
2013-03-05 01:19:00,29.0,29.0,29.92,North,1,0.0,0.0,98,0.00,,,0.00,weatherlink.com 1.10,2013-03-05 09:19:00,
2013-03-05 01:31:00,29.4,29.0,29.92,North,1,0.0,0.0,98,0.00,,,0.00,weatherlink.com 1.10,2013-03-05 09:31:00,
2013-03-05 01:46:00,29.8,29.0,29.91,North,1,0.0,0.0,98,0.00,,,0.00,weatherlink.com 1.10,2013-03-05 09:46:00,
2013-03-05 02:01:00,30.1,30.0,29.91,North,1,0.0,0.0,98,0.00,,,0.00,weatherlink.com 1.10,2013-03-05 10:01:00,
2013-03-05 02:16:00,30.3,30.0,29.91,North,1,0.0,0.0,98,0.00,,,0.00,weatherlink.com 1.10,2013-03-05 10:16:00,
2013-03-05 02:31:00,30.5,30.0,29.90,North,1,0.0,0.0,98,0.00,,,0.00,weatherlink.com 1.10,2013-03-05 10:31:00,
2013-03-05 02:46:00,30.6,30.0,29.90,North,1,0.0,0.0,98,0.00,,,0.00,weatherlink.com 1.10,2013-03-05 10:46:00,
2013-03-05 03:01:00,31.2,31.0,29.89,North,1,0.0,0.0,98,0.00,,,0.00,weatherlink.com 1.10,2013-03-05 11:01:00,
2013-03-05 03:16:00,31.4,31.0,29.89,North,1,0.0,0.0,98,0.00,,,0.00,weatherlink.com 1.10,2013-03-05 11:16:00,
2013-03-05 03:31:00,31.7,31.0,29.87,North,1,0.0,0.0,98,0.00,,,0.00,weatherlink.com 1.10,2013-03-05 11:31:00,
2013-03-05 03:46:00,31.8,31.0,29.87,SW,225,0.0,0.0,98,0.00,,,0.00,weatherlink.com 1.10,2013-03-05 11:46:00,
2013-03-05 04:01:00,31.9,31.0,29.87,SW,225,0.0,0.0,97,0.00,,,0.00,weatherlink.com 1.10,2013-03-05 12:01:00,
2013-03-05 04:16:00,31.9,31.0,29.86,SW,225,0.0,0.0,97,0.00,,,0.00,weatherlink.com 1.10,2013-03-05 12:16:00,
2013-03-05 04:31:00,32.1,31.0,29.85,SW,225,0.0,0.0,97,0.00,,,0.00,weatherlink.com 1.10,2013-03-05 12:31:00,
2013-03-05 04:46:00,32.2,32.0,29.85,SW,225,0.0,0.0,97,0.00,,,0.00,weatherlink.com 1.10,2013-03-05 12:46:00,
2013-03-05 05:01:00,32.5,32.0,29.85,SW,225,0.0,0.0,98,0.00,,,0.00,weatherlink.com 1.10,2013-03-05 13:01:00,
2013-03-05 05:16:00,32.7,32.0,29.85,SW,225,0.0,0.0,97,0.00,,,0.00,weatherlink.com 1.10,2013-03-05 13:16:00,
2013-03-05 05:31:00,32.9,32.0,29.85,SW,225,0.0,0.0,97,0.00,,,0.00,weatherlink.com 1.10,2013-03-05 13:31:00,
2013-03-05 05:46:00,33.2,33.0,29.85,SSW,208,0.0,0.0,98,0.00,,,0.00,weatherlink.com 1.10,2013-03-05 13:46:00,
2013-03-05 06:01:00,33.5,33.0,29.84,NNE,20,0.0,0.0,97,0.00,,,0.00,weatherlink.com 1.10,2013-03-05 14:01:00,
2013-03-05 06:16:00,34.0,33.0,29.85,NW,305,0.0,3.0,95,0.00,,,0.00,weatherlink.com 1.10,2013-03-05 14:16:00,
2013-03-05 06:31:00,34.1,32.0,29.85,West,269,0.0,3.0,93,0.00,,,0.00,weatherlink.com 1.10,2013-03-05 14:31:00,
2013-03-05 06:46:00,34.4,32.0,29.85,WNW,286,0.0,0.0,92,0.00,,,0.00,weatherlink.com 1.10,2013-03-05 14:46:00,
2013-03-05 07:01:00,34.8,33.0,29.86,WNW,282,0.0,0.0,91,0.00,,,0.00,weatherlink.com 1.10,2013-03-05 15:01:00,
2013-03-05 07:16:00,34.8,33.0,29.86,North,6,0.0,0.0,93,0.00,,,0.00,weatherlink.com 1.10,2013-03-05 15:16:00,
2013-03-05 07:46:00,35.8,34.0,29.85,WSW,258,0.0,2.0,92,0.00,,,0.00,weatherlink.com 1.10,2013-03-05 15:46:00,
2013-03-05 08:01:00,36.0,35.0,29.86,South,191,0.0,0.0,94,0.00,,,0.00,weatherlink.com 1.10,2013-03-05 16:01:00,
2013-03-05 08:16:00,36.3,35.0,29.86,NE,40,0.0,0.0,94,0.00,,,0.00,weatherlink.com 1.10,2013-03-05 16:16:00,
2013-03-05 08:31:00,36.8,36.0,29.86,WNW,290,0.0,0.0,95,0.01,,,0.01,weatherlink.com 1.10,2013-03-05 16:31:00,
2013-03-05 08:46:00,37.0,36.0,29.86,WNW,290,0.0,0.0,95,0.01,,,0.01,weatherlink.com 1.10,2013-03-05 16:46:00,
2013-03-05 09:02:00,37.5,37.0,29.86,WNW,294,0.0,0.0,96,0.01,,,0.01,weatherlink.com 1.10,2013-03-05 17:02:00,
2013-03-05 09:17:00,38.4,37.0,29.86,WNW,293,0.0,0.0,96,0.01,,,0.01,weatherlink.com 1.10,2013-03-05 17:17:00,
2013-03-05 09:32:00,39.0,38.0,29.85,WNW,293,0.0,0.0,95,0.00,,,0.01,weatherlink.com 1.10,2013-03-05 17:32:00,
2013-03-05 09:47:00,39.7,38.0,29.85,WNW,293,0.0,0.0,92,0.00,,,0.01,weatherlink.com 1.10,2013-03-05 17:47:00,
2013-03-05 10:02:00,40.1,38.0,29.85,WNW,293,0.0,0.0,91,0.00,,,0.01,weatherlink.com 1.10,2013-03-05 18:02:00,
2013-03-05 10:32:00,41.1,37.0,29.84,North,4,0.0,0.0,86,0.00,,,0.01,weatherlink.com 1.10,2013-03-05 18:32:00,
2013-03-05 10:47:00,41.4,38.0,29.84,NE,34,0.0,1.0,87,0.00,,,0.01,weatherlink.com 1.10,2013-03-05 18:47:00,
2013-03-05 11:02:00,41.5,37.0,29.84,SSE,150,0.0,0.0,85,0.00,,,0.01,weatherlink.com 1.10,2013-03-05 19:02:00,
2013-03-05 11:17:00,41.8,38.0,29.84,WNW,303,0.0,0.0,85,0.00,,,0.01,weatherlink.com 1.10,2013-03-05 19:17:00,
2013-03-05 11:32:00,42.5,39.0,29.84,WSW,238,0.0,2.0,86,0.00,,,0.01,weatherlink.com 1.10,2013-03-05 19:32:00,
2013-03-05 11:47:00,43.3,39.0,29.83,SSW,207,1.0,1.0,85,0.00,,,0.01,weatherlink.com 1.10,2013-03-05 19:47:00,
2013-03-05 12:17:00,44.4,40.0,29.84,SW,230,0.0,0.0,85,0.00,,,0.01,weatherlink.com 1.10,2013-03-05 20:17:00,
2013-03-05 12:32:00,44.1,40.0,29.83,WSW,238,0.0,0.0,84,0.00,,,0.01,weatherlink.com 1.10,2013-03-05 20:32:00,
2013-03-05 12:47:00,44.0,40.0,29.82,West,272,0.0,4.0,86,0.00,,,0.01,weatherlink.com 1.10,2013-03-05 20:47:00,
2013-03-05 13:02:00,43.9,40.0,29.82,WNW,286,0.0,0.0,86,0.00,,,0.01,weatherlink.com 1.10,2013-03-05 21:02:00,
2013-03-05 13:17:00,44.6,40.0,29.80,West,274,0.0,0.0,84,0.00,,,0.01,weatherlink.com 1.10,2013-03-05 21:17:00,
2013-03-05 13:32:00,45.1,40.0,29.81,East,89,0.0,0.0,83,0.00,,,0.01,weatherlink.com 1.10,2013-03-05 21:32:00,
2013-03-05 13:49:00,45.4,40.0,29.81,West,278,0.0,0.0,81,0.00,,,0.01,weatherlink.com 1.10,2013-03-05 21:49:00,
2013-03-05 14:02:00,44.9,40.0,29.80,WNW,288,0.0,0.0,83,0.00,,,0.01,weatherlink.com 1.10,2013-03-05 22:02:00,
2013-03-05 14:17:00,44.9,40.0,29.80,West,276,0.0,0.0,82,0.00,,,0.01,weatherlink.com 1.10,2013-03-05 22:17:00,
2013-03-05 14:32:00,44.8,40.0,29.80,North,2,0.0,0.0,82,0.00,,,0.01,weatherlink.com 1.10,2013-03-05 22:32:00,
2013-03-05 14:47:00,44.6,41.0,29.81,North,2,0.0,0.0,87,0.00,,,0.01,weatherlink.com 1.10,2013-03-05 22:47:00,
2013-03-05 15:02:00,43.9,42.0,29.80,North,2,0.0,0.0,92,0.01,,,0.02,weatherlink.com 1.10,2013-03-05 23:02:00,
2013-03-05 15:17:00,43.9,42.0,29.80,NNW,338,0.0,0.0,92,0.01,,,0.02,weatherlink.com 1.10,2013-03-05 23:17:00,
2013-03-05 15:32:00,43.1,41.0,29.80,ENE,76,0.0,0.0,93,0.03,,,0.04,weatherlink.com 1.10,2013-03-05 23:32:00,
2013-03-05 15:47:00,42.8,41.0,29.80,NNW,328,0.0,0.0,94,0.04,,,0.05,weatherlink.com 1.10,2013-03-05 23:47:00,
2013-03-05 16:02:00,42.7,41.0,29.79,East,79,0.0,0.0,95,0.04,,,0.06,weatherlink.com 1.10,2013-03-06 00:02:00,
2013-03-05 16:18:00,42.6,42.0,29.79,NNE,15,0.0,0.0,96,0.04,,,0.06,weatherlink.com 1.10,2013-03-06 00:18:00,
2013-03-05 16:33:00,42.5,41.0,29.79,NNE,17,0.0,0.0,95,0.03,,,0.07,weatherlink.com 1.10,2013-03-06 00:33:00,
2013-03-05 16:48:00,42.4,41.0,29.79,West,268,0.0,0.0,96,0.03,,,0.08,weatherlink.com 1.10,2013-03-06 00:48:00,
2013-03-05 17:03:00,41.6,40.0,29.79,East,79,0.0,2.0,95,0.03,,,0.09,weatherlink.com 1.10,2013-03-06 01:03:00,
2013-03-05 17:18:00,41.5,41.0,29.79,North,354,0.0,0.0,96,0.05,,,0.11,weatherlink.com 1.10,2013-03-06 01:18:00,
2013-03-05 17:33:00,41.1,40.0,29.78,North,355,0.0,0.0,96,0.03,,,0.11,weatherlink.com 1.10,2013-03-06 01:33:00,
2013-03-05 17:48:00,40.9,40.0,29.78,North,359,0.0,0.0,97,0.04,,,0.12,weatherlink.com 1.10,2013-03-06 01:48:00,
2013-03-05 18:03:00,40.8,40.0,29.78,North,359,0.0,0.0,97,0.03,,,0.13,weatherlink.com 1.10,2013-03-06 02:03:00,
2013-03-05 18:18:00,40.7,40.0,29.78,North,358,0.0,0.0,97,0.02,,,0.13,weatherlink.com 1.10,2013-03-06 02:18:00,
2013-03-05 18:33:00,40.8,40.0,29.78,NNW,347,0.0,0.0,97,0.03,,,0.14,weatherlink.com 1.10,2013-03-06 02:33:00,
2013-03-05 18:48:00,40.7,40.0,29.79,NNW,347,0.0,0.0,97,0.02,,,0.14,weatherlink.com 1.10,2013-03-06 02:48:00,
2013-03-05 19:03:00,40.6,40.0,29.79,NNW,348,0.0,0.0,98,0.02,,,0.15,weatherlink.com 1.10,2013-03-06 03:03:00,
2013-03-05 19:18:00,40.6,40.0,29.78,NNW,348,0.0,0.0,98,0.03,,,0.16,weatherlink.com 1.10,2013-03-06 03:18:00,
2013-03-05 19:33:00,40.6,40.0,29.78,NNW,348,0.0,0.0,98,0.03,,,0.17,weatherlink.com 1.10,2013-03-06 03:33:00,
2013-03-05 19:48:00,40.6,40.0,29.78,NNW,348,0.0,0.0,98,0.03,,,0.17,weatherlink.com 1.10,2013-03-06 03:48:00,
2013-03-05 20:03:00,40.5,40.0,29.77,NNW,348,0.0,0.0,98,0.03,,,0.18,weatherlink.com 1.10,2013-03-06 04:03:00,
2013-03-05 20:18:00,40.4,40.0,29.77,NNW,348,0.0,0.0,98,0.02,,,0.18,weatherlink.com 1.10,2013-03-06 04:18:00,
2013-03-05 20:33:00,40.4,40.0,29.76,NNW,348,0.0,0.0,98,0.01,,,0.18,weatherlink.com 1.10,2013-03-06 04:33:00,
2013-03-05 20:48:00,40.1,40.0,29.76,NNW,348,0.0,0.0,98,0.01,,,0.18,weatherlink.com 1.10,2013-03-06 04:48:00,
2013-03-05 21:03:00,40.2,40.0,29.76,NNW,348,0.0,0.0,98,0.00,,,0.18,weatherlink.com 1.10,2013-03-06 05:03:00,
2013-03-05 21:18:00,40.2,40.0,29.76,NNW,342,0.0,0.0,98,0.00,,,0.18,weatherlink.com 1.10,2013-03-06 05:18:00,
2013-03-05 21:33:00,40.1,40.0,29.75,NNW,342,0.0,0.0,98,0.00,,,0.18,weatherlink.com 1.10,2013-03-06 05:33:00,
2013-03-05 21:48:00,40.1,40.0,29.75,NNW,342,0.0,0.0,98,0.00,,,0.18,weatherlink.com 1.10,2013-03-06 05:48:00,
2013-03-05 22:03:00,40.1,40.0,29.74,NNW,342,0.0,0.0,98,0.00,,,0.18,weatherlink.com 1.10,2013-03-06 06:03:00,
2013-03-05 22:18:00,40.0,40.0,29.74,NNW,342,0.0,0.0,98,0.00,,,0.18,weatherlink.com 1.10,2013-03-06 06:18:00,
2013-03-05 22:33:00,40.1,40.0,29.73,NW,304,0.0,0.0,98,0.00,,,0.18,weatherlink.com 1.10,2013-03-06 06:33:00,
2013-03-05 22:48:00,40.2,40.0,29.73,WNW,289,0.0,0.0,98,0.00,,,0.18,weatherlink.com 1.10,2013-03-06 06:48:00,
2013-03-05 23:03:00,40.1,40.0,29.72,WNW,298,0.0,0.0,98,0.00,,,0.18,weatherlink.com 1.10,2013-03-06 07:03:00,
2013-03-05 23:18:00,40.1,40.0,29.71,West,271,0.0,0.0,98,0.00,,,0.18,weatherlink.com 1.10,2013-03-06 07:18:00,
2013-03-05 23:33:00,40.2,40.0,29.71,West,274,0.0,0.0,98,0.00,,,0.18,weatherlink.com 1.10,2013-03-06 07:33:00,
2013-03-05 23:48:00,40.3,40.0,29.70,West,263,0.0,2.0,99,0.00,,,0.18,weatherlink.com 1.10,2013-03-06 07:48:00,